createdAt,value
2019-01-18T00:00:03.531Z,999.04
2019-01-18T00:01:03.519Z,999.09
2019-01-18T00:02:03.500Z,999.03
2019-01-18T00:03:03.486Z,999.05
2019-01-18T00:04:03.475Z,999.10
2019-01-18T00:05:03.472Z,999.08
2019-01-18T00:06:03.469Z,999.15
2019-01-18T00:07:03.443Z,999.18
2019-01-18T00:08:03.483Z,999.09
2019-01-18T00:09:03.426Z,999.11
2019-01-18T00:10:03.447Z,999.06
2019-01-18T00:11:03.413Z,999.12
2019-01-18T00:12:04.161Z,999.16
2019-01-18T00:13:03.382Z,999.11
2019-01-18T00:14:03.373Z,999.13
2019-01-18T00:15:03.359Z,999.18
2019-01-18T00:16:03.387Z,999.14
2019-01-18T00:17:03.343Z,999.16
2019-01-18T00:18:03.354Z,999.19
2019-01-18T00:19:03.321Z,999.22
2019-01-18T00:20:03.307Z,999.23
2019-01-18T00:21:03.301Z,999.25
2019-01-18T00:22:03.298Z,999.22
2019-01-18T00:23:03.275Z,999.22
2019-01-18T00:24:03.312Z,999.20
2019-01-18T00:25:03.255Z,999.30
2019-01-18T00:26:03.248Z,999.29
2019-01-18T00:27:03.252Z,999.23
2019-01-18T00:28:03.241Z,999.34
2019-01-18T00:29:03.212Z,999.26
2019-01-18T00:30:03.208Z,999.32
2019-01-18T00:31:03.190Z,999.30
2019-01-18T00:32:03.189Z,999.38
2019-01-18T00:33:03.172Z,999.39
2019-01-18T00:34:03.166Z,999.35
2019-01-18T00:35:03.153Z,999.42
2019-01-18T00:36:03.140Z,999.47
2019-01-18T00:37:03.138Z,999.43
2019-01-18T00:38:03.123Z,999.42
2019-01-18T00:39:03.122Z,999.50
2019-01-18T00:40:03.107Z,999.41
2019-01-18T00:41:03.091Z,999.46
2019-01-18T00:42:03.087Z,999.53
2019-01-18T00:43:03.072Z,999.55
2019-01-18T00:44:03.053Z,999.61
2019-01-18T00:45:03.044Z,999.64
2019-01-18T00:46:03.033Z,999.55
2019-01-18T00:47:03.034Z,999.69
2019-01-18T00:48:03.014Z,999.65
2019-01-18T00:49:03.008Z,999.66
2019-01-18T00:50:02.992Z,999.65
2019-01-18T00:51:02.987Z,999.69
2019-01-18T00:52:03.210Z,999.63
2019-01-18T00:53:02.958Z,999.67
2019-01-18T00:54:02.948Z,999.74
2019-01-18T00:55:02.938Z,999.72
2019-01-18T00:56:02.935Z,999.77
2019-01-18T00:57:02.937Z,999.78
2019-01-18T00:58:02.905Z,999.79
2019-01-18T00:59:02.898Z,999.79
2019-01-18T01:00:02.890Z,999.77
2019-01-18T01:01:02.877Z,999.78
2019-01-18T01:02:02.879Z,999.80
2019-01-18T01:03:02.859Z,999.84
2019-01-18T01:04:02.847Z,999.85
2019-01-18T01:05:02.839Z,999.81
2019-01-18T01:06:02.823Z,999.77
2019-01-18T01:07:02.827Z,999.80
2019-01-18T01:08:02.802Z,999.88
2019-01-18T01:09:02.791Z,999.86
2019-01-18T01:10:02.781Z,999.89
2019-01-18T01:11:02.769Z,999.93
2019-01-18T01:12:02.773Z,999.95
2019-01-18T01:13:02.750Z,999.99
2019-01-18T01:14:02.741Z,999.98
2019-01-18T01:15:02.742Z,999.99
2019-01-18T01:16:02.740Z,1000.06
2019-01-18T01:17:02.846Z,1000.07
2019-01-18T01:18:02.701Z,1000.07
2019-01-18T01:19:02.697Z,1000.08
2019-01-18T01:20:02.679Z,1000.14
2019-01-18T01:21:02.667Z,1000.15
2019-01-18T01:22:02.670Z,1000.23
2019-01-18T01:23:02.649Z,1000.21
2019-01-18T01:24:02.636Z,1000.30
2019-01-18T01:25:02.628Z,1000.34
2019-01-18T01:26:02.613Z,1000.35
2019-01-18T01:27:02.615Z,1000.35
2019-01-18T01:28:02.595Z,1000.39
2019-01-18T01:29:02.582Z,1000.37
2019-01-18T01:30:02.574Z,1000.44
2019-01-18T01:31:02.568Z,1000.47
2019-01-18T01:32:02.563Z,1000.50
2019-01-18T01:33:02.540Z,1000.63
2019-01-18T01:34:02.527Z,1000.74
2019-01-18T01:35:02.519Z,1000.80
2019-01-18T01:36:02.511Z,1000.89
2019-01-18T01:37:02.520Z,1000.94
2019-01-18T01:38:02.493Z,1000.97
2019-01-18T01:39:02.490Z,1000.98
2019-01-18T01:40:02.466Z,1001.16
2019-01-18T01:41:02.460Z,1001.19
2019-01-18T01:42:02.448Z,1001.20
2019-01-18T01:43:02.448Z,1001.23
2019-01-18T01:44:02.430Z,1001.25
2019-01-18T01:45:02.418Z,1001.28
2019-01-18T01:46:02.405Z,1001.34
2019-01-18T01:47:02.395Z,1001.37
2019-01-18T01:48:02.395Z,1001.38
2019-01-18T01:49:02.389Z,1001.47
2019-01-18T01:50:02.361Z,1001.52
2019-01-18T01:51:02.366Z,1001.49
2019-01-18T01:52:02.340Z,1001.57
2019-01-18T01:53:02.346Z,1001.55
2019-01-18T01:54:02.318Z,1001.63
2019-01-18T01:55:02.309Z,1001.60
2019-01-18T01:56:03.136Z,1001.64
2019-01-18T01:57:02.288Z,1001.61
2019-01-18T01:58:02.297Z,1001.67
2019-01-18T01:59:02.266Z,1001.81
2019-01-18T02:00:02.273Z,1001.76
2019-01-18T02:01:02.246Z,1001.80
2019-01-18T02:02:02.238Z,1001.83
2019-01-18T02:03:02.237Z,1001.86
2019-01-18T02:04:02.214Z,1001.89
2019-01-18T02:05:02.204Z,1001.89
2019-01-18T02:06:02.195Z,1001.92
2019-01-18T02:07:02.186Z,1002.01
2019-01-18T02:08:02.190Z,1001.95
2019-01-18T02:09:02.159Z,1002.01
2019-01-18T02:10:02.155Z,1002.06
2019-01-18T02:11:02.142Z,1002.04
2019-01-18T02:12:02.128Z,1002.11
2019-01-18T02:13:02.132Z,1002.14
2019-01-18T02:14:02.111Z,1002.18
2019-01-18T02:15:02.154Z,1002.23
2019-01-18T02:16:02.089Z,1002.34
2019-01-18T02:17:02.080Z,1002.28
2019-01-18T02:18:02.079Z,1002.30
2019-01-18T02:19:02.059Z,1002.37
2019-01-18T02:20:02.048Z,1002.33
2019-01-18T02:21:02.034Z,1002.39
2019-01-18T02:22:02.024Z,1002.39
2019-01-18T02:23:02.032Z,1002.43
2019-01-18T02:24:02.008Z,1002.43
2019-01-18T02:25:01.995Z,1002.43
2019-01-18T02:26:01.985Z,1002.43
2019-01-18T02:27:01.971Z,1002.51
2019-01-18T02:28:01.972Z,1002.55
2019-01-18T02:29:01.952Z,1002.46
2019-01-18T02:30:01.944Z,1002.61
2019-01-18T02:31:01.947Z,1002.62
2019-01-18T02:32:01.924Z,1002.63
2019-01-18T02:33:01.918Z,1002.67
2019-01-18T02:34:01.900Z,1002.66
2019-01-18T02:35:01.910Z,1002.73
2019-01-18T02:36:01.874Z,1002.68
2019-01-18T02:37:01.867Z,1002.67
2019-01-18T02:38:01.878Z,1002.70
2019-01-18T02:39:01.851Z,1002.75
2019-01-18T02:40:01.840Z,1002.75
2019-01-18T02:41:01.850Z,1002.75
2019-01-18T02:42:01.824Z,1002.78
2019-01-18T02:43:01.831Z,1002.82
2019-01-18T02:44:01.797Z,1002.80
2019-01-18T02:45:01.806Z,1002.86
2019-01-18T02:46:01.770Z,1002.87
2019-01-18T02:47:01.759Z,1002.90
2019-01-18T02:48:01.761Z,1002.86
2019-01-18T02:49:01.740Z,1002.92
2019-01-18T02:50:02.415Z,1002.97
2019-01-18T02:51:01.717Z,1002.98
2019-01-18T02:52:01.716Z,1003.02
2019-01-18T02:53:01.929Z,1003.10
2019-01-18T02:54:01.687Z,1003.16
2019-01-18T02:55:01.693Z,1003.16
2019-01-18T02:56:01.667Z,1003.18
2019-01-18T02:57:01.654Z,1003.21
2019-01-18T02:58:01.647Z,1003.28
2019-01-18T02:59:01.643Z,1003.34
2019-01-18T03:00:05.038Z,1003.27
2019-01-18T03:01:01.612Z,1003.27
2019-01-18T03:02:01.600Z,1003.36
2019-01-18T03:03:01.642Z,1003.35
2019-01-18T03:04:03.643Z,1003.39
2019-01-18T03:05:01.588Z,1003.41
2019-01-18T03:06:01.627Z,1003.45
2019-01-18T03:07:04.091Z,1003.51
2019-01-18T03:08:01.544Z,1003.54
2019-01-18T03:09:01.538Z,1003.56
2019-01-18T03:10:01.516Z,1003.58
2019-01-18T03:11:01.509Z,1003.60
2019-01-18T03:12:01.493Z,1003.58
2019-01-18T03:13:01.485Z,1003.66
2019-01-18T03:14:01.488Z,1003.71
2019-01-18T03:15:01.461Z,1003.75
2019-01-18T03:16:01.492Z,1003.74
2019-01-18T03:17:01.482Z,1003.79
2019-01-18T03:18:01.432Z,1003.78
2019-01-18T03:19:01.431Z,1003.84
2019-01-18T03:20:01.412Z,1003.82
2019-01-18T03:21:01.408Z,1003.89
2019-01-18T03:22:01.392Z,1003.89
2019-01-18T03:23:01.386Z,1003.90
2019-01-18T03:24:01.381Z,1003.99
2019-01-18T03:25:01.360Z,1003.98
2019-01-18T03:26:01.355Z,1003.97
2019-01-18T03:27:01.347Z,1004.01
2019-01-18T03:28:01.323Z,1004.00
2019-01-18T03:29:01.325Z,1004.09
2019-01-18T03:30:01.306Z,1004.13
2019-01-18T03:31:01.301Z,1004.13
2019-01-18T03:32:01.300Z,1004.07
2019-01-18T03:33:01.318Z,1004.19
2019-01-18T03:34:01.277Z,1004.16
2019-01-18T03:35:01.253Z,1004.18
2019-01-18T03:36:01.253Z,1004.19
2019-01-18T03:37:01.238Z,1004.19
2019-01-18T03:38:01.219Z,1004.26
2019-01-18T03:39:01.219Z,1004.28
2019-01-18T03:40:01.241Z,1004.32
2019-01-18T03:41:01.192Z,1004.29
2019-01-18T03:42:01.176Z,1004.34
2019-01-18T03:43:01.167Z,1004.32
2019-01-18T03:44:01.170Z,1004.37
2019-01-18T03:45:01.150Z,1004.34
2019-01-18T03:46:01.137Z,1004.43
2019-01-18T03:47:01.123Z,1004.40
2019-01-18T03:48:01.114Z,1004.44
2019-01-18T03:49:01.124Z,1004.49
2019-01-18T03:50:01.110Z,1004.47
2019-01-18T03:51:01.088Z,1004.48
2019-01-18T03:52:01.073Z,1004.54
2019-01-18T03:53:01.084Z,1004.46
2019-01-18T03:54:01.067Z,1004.56
2019-01-18T03:55:01.076Z,1004.58
2019-01-18T03:56:01.031Z,1004.59
2019-01-18T03:57:01.025Z,1004.62
2019-01-18T03:58:01.011Z,1004.66
2019-01-18T03:59:01.017Z,1004.60
2019-01-18T04:00:00.987Z,1004.60
2019-01-18T04:01:00.979Z,1004.59
2019-01-18T04:02:00.971Z,1004.63
2019-01-18T04:03:00.964Z,1004.68
2019-01-18T04:04:00.964Z,1004.73
2019-01-18T04:05:00.939Z,1004.65
2019-01-18T04:06:00.929Z,1004.66
2019-01-18T04:07:00.913Z,1004.76
2019-01-18T04:08:00.908Z,1004.80
2019-01-18T04:09:00.919Z,1004.84
2019-01-18T04:10:00.903Z,1004.83
2019-01-18T04:11:00.873Z,1004.85
2019-01-18T04:12:00.862Z,1004.89
2019-01-18T04:13:00.853Z,1004.97
2019-01-18T04:14:00.877Z,1004.95
2019-01-18T04:15:00.861Z,1004.92
2019-01-18T04:16:00.824Z,1004.95
2019-01-18T04:17:00.814Z,1005.05
2019-01-18T04:18:00.802Z,1005.08
2019-01-18T04:19:00.787Z,1005.14
2019-01-18T04:20:00.794Z,1005.14
2019-01-18T04:21:00.772Z,1005.13
2019-01-18T04:22:00.766Z,1005.14
2019-01-18T04:23:00.747Z,1005.07
2019-01-18T04:24:00.749Z,1005.11
2019-01-18T04:25:00.739Z,1005.18
2019-01-18T04:26:00.715Z,1005.26
2019-01-18T04:27:00.704Z,1005.23
2019-01-18T04:28:00.707Z,1005.30
2019-01-18T04:29:00.683Z,1005.29
2019-01-18T04:30:00.693Z,1005.21
2019-01-18T04:31:00.662Z,1005.25
2019-01-18T04:32:00.720Z,1005.27
2019-01-18T04:33:00.640Z,1005.36
2019-01-18T04:34:01.879Z,1005.43
2019-01-18T04:35:00.634Z,1005.38
2019-01-18T04:36:00.611Z,1005.45
2019-01-18T04:37:00.615Z,1005.40
2019-01-18T04:38:00.588Z,1005.49
2019-01-18T04:39:00.577Z,1005.52
2019-01-18T04:40:00.588Z,1005.55
2019-01-18T04:41:00.565Z,1005.51
2019-01-18T04:42:00.544Z,1005.62
2019-01-18T04:43:00.536Z,1005.54
2019-01-18T04:44:00.528Z,1005.58
2019-01-18T04:45:00.526Z,1005.60
2019-01-18T04:46:00.516Z,1005.58
2019-01-18T04:47:00.493Z,1005.62
2019-01-18T04:48:00.486Z,1005.65
2019-01-18T04:49:00.478Z,1005.63
2019-01-18T04:50:00.510Z,1005.65
2019-01-18T04:51:00.464Z,1005.69
2019-01-18T04:52:00.450Z,1005.68
2019-01-18T04:53:00.429Z,1005.69
2019-01-18T04:54:00.419Z,1005.66
2019-01-18T04:55:00.421Z,1005.71
2019-01-18T04:56:00.401Z,1005.69
2019-01-18T04:57:00.393Z,1005.75
2019-01-18T04:58:00.378Z,1005.72
2019-01-18T04:59:00.367Z,1005.76
2019-01-18T05:00:00.369Z,1005.77
2019-01-18T05:01:00.345Z,1005.73
2019-01-18T05:02:00.335Z,1005.76
2019-01-18T05:03:00.332Z,1005.85
2019-01-18T05:04:00.320Z,1005.73
2019-01-18T05:05:00.387Z,1005.76
2019-01-18T05:06:00.291Z,1005.72
2019-01-18T05:07:00.285Z,1005.83
2019-01-18T05:08:00.293Z,1005.78
2019-01-18T05:09:00.274Z,1005.86
2019-01-18T05:10:00.278Z,1005.95
2019-01-18T05:11:00.307Z,1005.99
2019-01-18T05:12:00.229Z,1005.96
2019-01-18T05:13:00.309Z,1006.08
2019-01-18T05:14:00.207Z,1006.12
2019-01-18T05:15:00.212Z,1006.07
2019-01-18T05:16:00.188Z,1006.17
2019-01-18T05:17:00.256Z,1006.19
2019-01-18T05:18:00.251Z,1006.13
2019-01-18T05:19:00.155Z,1006.23
2019-01-18T05:20:00.262Z,1006.20
2019-01-18T05:21:00.133Z,1006.22
2019-01-18T05:22:00.129Z,1006.25
2019-01-18T05:23:00.153Z,1006.34
2019-01-18T05:24:00.100Z,1006.42
2019-01-18T05:25:00.260Z,1006.44
2019-01-18T05:26:00.081Z,1006.50
2019-01-18T05:27:00.071Z,1006.48
2019-01-18T05:28:00.059Z,1006.53
2019-01-18T05:29:00.066Z,1006.56
2019-01-18T05:30:00.242Z,1006.56
2019-01-18T05:31:00.047Z,1006.59
2019-01-18T05:32:00.022Z,1006.55
2019-01-18T05:33:00.022Z,1006.58
2019-01-18T05:34:00.003Z,1006.64
2019-01-18T05:35:00.226Z,1006.71
2019-01-18T05:36:00.006Z,1006.69
2019-01-18T05:36:59.966Z,1006.70
2019-01-18T05:37:59.958Z,1006.71
2019-01-18T05:38:59.944Z,1006.74
2019-01-18T05:39:59.945Z,1006.86
2019-01-18T05:40:59.943Z,1006.86
2019-01-18T05:41:59.913Z,1006.88
2019-01-18T05:42:59.901Z,1006.91
2019-01-18T05:43:59.896Z,1006.97
2019-01-18T05:44:59.885Z,1006.96
2019-01-18T05:45:59.883Z,1006.97
2019-01-18T05:46:59.862Z,1007.06
2019-01-18T05:47:59.849Z,1007.01
2019-01-18T05:48:59.839Z,1007.15
2019-01-18T05:49:59.832Z,1007.06
2019-01-18T05:50:59.840Z,1007.12
2019-01-18T05:51:59.824Z,1007.06
2019-01-18T05:52:59.800Z,1007.18
2019-01-18T05:53:59.800Z,1007.23
2019-01-18T05:54:59.775Z,1007.19
2019-01-18T05:55:59.775Z,1007.21
2019-01-18T05:56:59.755Z,1007.33
2019-01-18T05:57:59.756Z,1007.34
2019-01-18T05:58:59.737Z,1007.31
2019-01-18T05:59:59.728Z,1007.39
2019-01-18T06:00:59.725Z,1007.45
2019-01-18T06:01:59.707Z,1007.39
2019-01-18T06:02:59.693Z,1007.42
2019-01-18T06:03:59.693Z,1007.43
2019-01-18T06:04:59.675Z,1007.49
2019-01-18T06:05:59.687Z,1007.49
2019-01-18T06:06:59.654Z,1007.54
2019-01-18T06:07:59.642Z,1007.57
2019-01-18T06:08:59.629Z,1007.60
2019-01-18T06:09:59.620Z,1007.60
2019-01-18T06:10:59.669Z,1007.64
2019-01-18T06:11:59.603Z,1007.68
2019-01-18T06:12:59.600Z,1007.64
2019-01-18T06:13:59.639Z,1007.69
2019-01-18T06:15:06.689Z,1007.66
2019-01-18T06:15:59.567Z,1007.75
2019-01-18T06:16:59.557Z,1007.70
2019-01-18T06:17:59.534Z,1007.72
2019-01-18T06:18:59.522Z,1007.77
2019-01-18T06:19:59.516Z,1007.75
2019-01-18T06:20:59.562Z,1007.78
2019-01-18T06:21:59.504Z,1007.84
2019-01-18T06:22:59.493Z,1007.80
2019-01-18T06:23:59.479Z,1007.80
2019-01-18T06:24:59.466Z,1007.84
2019-01-18T06:25:59.450Z,1007.89
2019-01-18T06:26:59.452Z,1007.94
2019-01-18T06:27:59.440Z,1007.94
2019-01-18T06:28:59.434Z,1007.96
2019-01-18T06:29:59.433Z,1008.01
2019-01-18T06:31:01.878Z,1008.03
2019-01-18T06:31:59.399Z,1008.06
2019-01-18T06:32:59.385Z,1008.05
2019-01-18T06:33:59.367Z,1008.05
2019-01-18T06:34:59.421Z,1008.08
2019-01-18T06:35:59.357Z,1008.11
2019-01-18T06:36:59.348Z,1008.18
2019-01-18T06:37:59.338Z,1008.18
2019-01-18T06:38:59.326Z,1008.24
2019-01-18T06:39:59.329Z,1008.24
2019-01-18T06:40:59.295Z,1008.27
2019-01-18T06:41:59.310Z,1008.33
2019-01-18T06:42:59.283Z,1008.26
2019-01-18T06:43:59.265Z,1008.33
2019-01-18T06:44:59.252Z,1008.31
2019-01-18T06:45:59.246Z,1008.38
2019-01-18T06:46:59.247Z,1008.43
2019-01-18T06:47:59.221Z,1008.45
2019-01-18T06:48:59.215Z,1008.48
2019-01-18T06:49:59.200Z,1008.54
2019-01-18T06:50:59.189Z,1008.61
2019-01-18T06:51:59.192Z,1008.68
2019-01-18T06:52:59.180Z,1008.68
2019-01-18T06:53:59.160Z,1008.73
2019-01-18T06:54:59.169Z,1008.77
2019-01-18T06:55:59.138Z,1008.81
2019-01-18T06:56:59.138Z,1008.82
2019-01-18T06:57:59.130Z,1008.88
2019-01-18T06:58:59.109Z,1008.90
2019-01-18T06:59:59.107Z,1008.86
2019-01-18T07:00:59.092Z,1008.91
2019-01-18T07:01:59.116Z,1008.99
2019-01-18T07:02:59.081Z,1008.94
2019-01-18T07:03:59.060Z,1008.97
2019-01-18T07:04:59.049Z,1009.02
2019-01-18T07:05:59.033Z,1009.02
2019-01-18T07:06:59.027Z,1009.05
2019-01-18T07:07:59.025Z,1009.05
2019-01-18T07:08:59.006Z,1009.01
2019-01-18T07:09:58.992Z,1009.14
2019-01-18T07:10:58.985Z,1009.07
2019-01-18T07:11:59.013Z,1009.19
2019-01-18T07:12:58.977Z,1009.17
2019-01-18T07:13:58.959Z,1009.17
2019-01-18T07:14:58.965Z,1009.22
2019-01-18T07:15:58.931Z,1009.32
2019-01-18T07:16:58.924Z,1009.28
2019-01-18T07:17:58.925Z,1009.33
2019-01-18T07:18:58.917Z,1009.34
2019-01-18T07:19:58.888Z,1009.37
2019-01-18T07:20:58.879Z,1009.40
2019-01-18T07:21:58.869Z,1009.42
2019-01-18T07:22:58.898Z,1009.41
2019-01-18T07:23:58.846Z,1009.45
2019-01-18T07:24:58.839Z,1009.45
2019-01-18T07:25:58.827Z,1009.48
2019-01-18T07:26:58.823Z,1009.49
2019-01-18T07:27:58.849Z,1009.54
2019-01-18T07:28:58.797Z,1009.56
2019-01-18T07:29:58.787Z,1009.58
2019-01-18T07:30:58.777Z,1009.61
2019-01-18T07:31:58.764Z,1009.57
2019-01-18T07:32:58.774Z,1009.67
2019-01-18T07:33:58.746Z,1009.66
2019-01-18T07:34:58.733Z,1009.69
2019-01-18T07:35:58.721Z,1009.66
2019-01-18T07:36:58.711Z,1009.78
2019-01-18T07:37:58.757Z,1009.77
2019-01-18T07:39:00.617Z,1009.82
2019-01-18T07:39:58.680Z,1009.84
2019-01-18T07:40:58.671Z,1009.87
2019-01-18T07:41:58.665Z,1009.91
2019-01-18T07:42:58.662Z,1009.90
2019-01-18T07:43:58.641Z,1009.92
2019-01-18T07:44:58.629Z,1009.93
2019-01-18T07:45:58.618Z,1010.01
2019-01-18T07:46:58.616Z,1010.04
2019-01-18T07:47:58.609Z,1009.98
2019-01-18T07:48:58.586Z,1010.03
2019-01-18T07:49:58.574Z,1010.05
2019-01-18T07:50:58.592Z,1010.13
2019-01-18T07:51:58.554Z,1010.14
2019-01-18T07:52:58.556Z,1010.16
2019-01-18T07:53:58.537Z,1010.20
2019-01-18T07:54:58.523Z,1010.22
2019-01-18T07:55:58.513Z,1010.24
2019-01-18T07:56:58.509Z,1010.24
2019-01-18T07:57:58.534Z,1010.35
2019-01-18T07:58:58.484Z,1010.31
2019-01-18T07:59:58.493Z,1010.32
2019-01-18T08:00:58.485Z,1010.30
2019-01-18T08:01:58.448Z,1010.34
2019-01-18T08:02:58.451Z,1010.37
2019-01-18T08:03:58.439Z,1010.41
2019-01-18T08:04:58.423Z,1010.43
2019-01-18T08:05:58.415Z,1010.37
2019-01-18T08:06:58.407Z,1010.48
2019-01-18T08:07:58.401Z,1010.51
2019-01-18T08:08:58.374Z,1010.53
2019-01-18T08:09:58.366Z,1010.55
2019-01-18T08:10:58.354Z,1010.60
2019-01-18T08:11:58.345Z,1010.61
2019-01-18T08:12:58.344Z,1010.67
2019-01-18T08:13:58.325Z,1010.66
2019-01-18T08:14:58.312Z,1010.68
2019-01-18T08:15:58.302Z,1010.63
2019-01-18T08:16:58.291Z,1010.71
2019-01-18T08:17:58.294Z,1010.79
2019-01-18T08:18:58.273Z,1010.80
2019-01-18T08:19:58.269Z,1010.80
2019-01-18T08:20:58.247Z,1010.86
2019-01-18T08:21:58.239Z,1010.91
2019-01-18T08:22:58.231Z,1010.93
2019-01-18T08:23:58.231Z,1010.93
2019-01-18T08:24:58.208Z,1011.00
2019-01-18T08:25:58.206Z,1010.97
2019-01-18T08:26:58.187Z,1011.06
2019-01-18T08:27:58.181Z,1011.03
2019-01-18T08:28:58.181Z,1011.04
2019-01-18T08:29:58.161Z,1011.07
2019-01-18T08:30:58.143Z,1011.11
2019-01-18T08:31:58.142Z,1011.12
2019-01-18T08:32:58.121Z,1011.21
2019-01-18T08:33:58.201Z,1011.17
2019-01-18T08:34:58.103Z,1011.25
2019-01-18T08:35:58.092Z,1011.23
2019-01-18T08:36:58.084Z,1011.24
2019-01-18T08:37:58.072Z,1011.25
2019-01-18T08:38:58.070Z,1011.26
2019-01-18T08:39:58.048Z,1011.28
2019-01-18T08:40:58.041Z,1011.30
2019-01-18T08:41:58.025Z,1011.29
2019-01-18T08:42:58.014Z,1011.34
2019-01-18T08:43:58.020Z,1011.35
2019-01-18T08:44:57.992Z,1011.34
2019-01-18T08:45:58.014Z,1011.33
2019-01-18T08:46:57.975Z,1011.34
2019-01-18T08:47:57.965Z,1011.45
2019-01-18T08:48:58.029Z,1011.35
2019-01-18T08:49:57.945Z,1011.38
2019-01-18T08:50:57.940Z,1011.42
2019-01-18T08:51:57.920Z,1011.48
2019-01-18T08:52:57.908Z,1011.44
2019-01-18T08:53:57.917Z,1011.51
2019-01-18T08:54:57.888Z,1011.51
2019-01-18T08:55:57.892Z,1011.47
2019-01-18T08:56:57.893Z,1011.46
2019-01-18T08:57:57.860Z,1011.52
2019-01-18T08:58:57.862Z,1011.51
2019-01-18T08:59:57.835Z,1011.45
2019-01-18T09:00:57.826Z,1011.52
2019-01-18T09:01:57.814Z,1011.56
2019-01-18T09:02:57.818Z,1011.56
2019-01-18T09:03:57.812Z,1011.63
2019-01-18T09:04:57.784Z,1011.61
2019-01-18T09:05:57.774Z,1011.64
2019-01-18T09:06:57.762Z,1011.67
2019-01-18T09:07:57.753Z,1011.67
2019-01-18T09:08:57.753Z,1011.62
2019-01-18T09:09:57.732Z,1011.61
2019-01-18T09:10:57.727Z,1011.66
2019-01-18T09:11:57.708Z,1011.71
2019-01-18T09:12:57.699Z,1011.69
2019-01-18T09:13:59.832Z,1011.75
2019-01-18T09:14:57.694Z,1011.74
2019-01-18T09:15:57.667Z,1011.75
2019-01-18T09:16:57.659Z,1011.79
2019-01-18T09:17:57.646Z,1011.81
2019-01-18T09:18:57.646Z,1011.87
2019-01-18T09:19:57.625Z,1011.85
2019-01-18T09:20:57.614Z,1011.88
2019-01-18T09:21:57.602Z,1011.85
2019-01-18T09:22:57.594Z,1011.89
2019-01-18T09:23:57.611Z,1011.89
2019-01-18T09:24:57.575Z,1011.87
2019-01-18T09:25:57.562Z,1011.89
2019-01-18T09:26:57.558Z,1011.94
2019-01-18T09:27:57.545Z,1011.95
2019-01-18T09:28:57.559Z,1011.96
2019-01-18T09:29:57.527Z,1011.96
2019-01-18T09:30:57.509Z,1012.00
2019-01-18T09:31:57.500Z,1011.97
2019-01-18T09:32:57.494Z,1012.01
2019-01-18T09:33:57.486Z,1011.99
2019-01-18T09:34:57.476Z,1012.06
2019-01-18T09:35:57.470Z,1012.03
2019-01-18T09:36:57.443Z,1012.08
2019-01-18T09:37:57.432Z,1012.08
2019-01-18T09:38:57.467Z,1012.09
2019-01-18T09:39:57.419Z,1012.06
2019-01-18T09:40:57.408Z,1012.10
2019-01-18T09:41:57.389Z,1012.08
2019-01-18T09:42:57.392Z,1012.06
2019-01-18T09:43:57.372Z,1012.10
2019-01-18T09:44:57.371Z,1012.14
2019-01-18T09:45:57.347Z,1012.18
2019-01-18T09:46:57.348Z,1012.12
2019-01-18T09:47:57.325Z,1012.21
2019-01-18T09:48:57.321Z,1012.21
2019-01-18T09:49:57.325Z,1012.19
2019-01-18T09:50:57.299Z,1012.17
2019-01-18T09:51:57.284Z,1012.21
2019-01-18T09:52:57.289Z,1012.21
2019-01-18T09:53:57.273Z,1012.22
2019-01-18T09:54:57.953Z,1012.22
2019-01-18T09:55:57.240Z,1012.21
2019-01-18T09:56:57.232Z,1012.21
2019-01-18T09:57:57.217Z,1012.23
2019-01-18T09:58:57.217Z,1012.21
2019-01-18T09:59:57.211Z,1012.22
2019-01-18T10:00:57.191Z,1012.21
2019-01-18T10:01:57.174Z,1012.27
2019-01-18T10:02:57.175Z,1012.32
2019-01-18T10:03:57.164Z,1012.30
2019-01-18T10:04:57.157Z,1012.22
2019-01-18T10:05:57.132Z,1012.28
2019-01-18T10:06:57.127Z,1012.32
2019-01-18T10:07:57.113Z,1012.25
2019-01-18T10:08:57.104Z,1012.26
2019-01-18T10:09:57.106Z,1012.25
2019-01-18T10:10:57.080Z,1012.27
2019-01-18T10:11:57.075Z,1012.28
2019-01-18T10:12:57.063Z,1012.29
2019-01-18T10:13:57.048Z,1012.28
2019-01-18T10:14:57.051Z,1012.30
2019-01-18T10:15:57.028Z,1012.28
2019-01-18T10:16:57.017Z,1012.28
2019-01-18T10:18:00.730Z,1012.27
2019-01-18T10:18:56.995Z,1012.27
2019-01-18T10:19:56.998Z,1012.25
2019-01-18T10:20:56.976Z,1012.25
2019-01-18T10:21:56.970Z,1012.23
2019-01-18T10:22:56.962Z,1012.25
2019-01-18T10:23:56.953Z,1012.28
2019-01-18T10:24:56.951Z,1012.30
2019-01-18T10:25:56.921Z,1012.31
2019-01-18T10:26:56.909Z,1012.30
2019-01-18T10:27:56.911Z,1012.23
2019-01-18T10:28:57.116Z,1012.28
2019-01-18T10:29:56.907Z,1012.33
2019-01-18T10:30:56.888Z,1012.28
2019-01-18T10:31:56.864Z,1012.28
2019-01-18T10:32:56.852Z,1012.29
2019-01-18T10:33:56.837Z,1012.32
2019-01-18T10:34:56.841Z,1012.32
2019-01-18T10:35:56.834Z,1012.31
2019-01-18T10:36:56.911Z,1012.33
2019-01-18T10:37:56.794Z,1012.27
2019-01-18T10:38:56.853Z,1012.30
2019-01-18T10:39:56.790Z,1012.31
2019-01-18T10:40:56.771Z,1012.33
2019-01-18T10:41:56.757Z,1012.32
2019-01-18T10:42:56.763Z,1012.34
2019-01-18T10:43:56.734Z,1012.32
2019-01-18T10:44:56.738Z,1012.34
2019-01-18T10:45:56.713Z,1012.39
2019-01-18T10:46:56.703Z,1012.39
2019-01-18T10:47:56.699Z,1012.39
2019-01-18T10:48:56.688Z,1012.45
2019-01-18T10:49:56.688Z,1012.45
2019-01-18T10:50:56.659Z,1012.49
2019-01-18T10:51:56.689Z,1012.50
2019-01-18T10:52:56.644Z,1012.51
2019-01-18T10:53:56.628Z,1012.54
2019-01-18T10:54:56.661Z,1012.55
2019-01-18T10:55:56.626Z,1012.56
2019-01-18T10:56:56.600Z,1012.52
2019-01-18T10:57:56.587Z,1012.58
2019-01-18T10:58:56.590Z,1012.60
2019-01-18T10:59:56.576Z,1012.64
2019-01-18T11:00:56.613Z,1012.62
2019-01-18T11:02:03.410Z,1012.61
2019-01-18T11:02:57.535Z,1012.67
2019-01-18T11:03:56.533Z,1012.63
2019-01-18T11:04:56.531Z,1012.63
2019-01-18T11:05:56.521Z,1012.64
2019-01-18T11:06:56.494Z,1012.64
2019-01-18T11:07:56.482Z,1012.73
2019-01-18T11:08:56.473Z,1012.68
2019-01-18T11:09:56.457Z,1012.73
2019-01-18T11:10:56.461Z,1012.64
2019-01-18T11:11:56.439Z,1012.68
2019-01-18T11:12:56.428Z,1012.67
2019-01-18T11:13:57.477Z,1012.67
2019-01-18T11:14:56.415Z,1012.65
2019-01-18T11:15:56.407Z,1012.70
2019-01-18T11:16:56.386Z,1012.68
2019-01-18T11:17:56.383Z,1012.74
2019-01-18T11:18:56.367Z,1012.77
2019-01-18T11:19:56.371Z,1012.79
2019-01-18T11:20:56.361Z,1012.76
2019-01-18T11:21:56.336Z,1012.75
2019-01-18T11:22:56.327Z,1012.81
2019-01-18T11:23:56.318Z,1012.85
2019-01-18T11:24:56.300Z,1012.83
2019-01-18T11:25:56.308Z,1012.78
2019-01-18T11:26:56.282Z,1012.79
2019-01-18T11:27:56.275Z,1012.77
2019-01-18T11:28:56.297Z,1012.75
2019-01-18T11:29:56.250Z,1012.74
2019-01-18T11:30:56.257Z,1012.76
2019-01-18T11:31:56.234Z,1012.79
2019-01-18T11:32:56.283Z,1012.83
2019-01-18T11:33:56.206Z,1012.80
2019-01-18T11:34:56.209Z,1012.84
2019-01-18T11:35:56.198Z,1012.84
2019-01-18T11:36:58.214Z,1012.81
2019-01-18T11:37:56.178Z,1012.87
2019-01-18T11:38:56.152Z,1012.80
2019-01-18T11:39:56.150Z,1012.77
2019-01-18T11:40:56.153Z,1012.83
2019-01-18T11:41:56.126Z,1012.80
2019-01-18T11:42:56.111Z,1012.87
2019-01-18T11:43:56.110Z,1012.85
2019-01-18T11:44:56.092Z,1012.82
2019-01-18T11:45:56.116Z,1012.86
2019-01-18T11:46:56.070Z,1012.83
2019-01-18T11:47:56.072Z,1012.86
2019-01-18T11:48:56.055Z,1012.88
2019-01-18T11:49:56.061Z,1012.89
2019-01-18T11:50:56.040Z,1012.90
2019-01-18T11:51:56.015Z,1012.92
2019-01-18T11:52:56.043Z,1012.89
2019-01-18T11:53:56.009Z,1012.92
2019-01-18T11:54:56.058Z,1012.89
2019-01-18T11:56:19.137Z,1012.93
2019-01-18T11:56:59.469Z,1012.94
2019-01-18T11:57:55.956Z,1012.88
2019-01-18T11:58:55.950Z,1012.94
2019-01-18T11:59:55.936Z,1012.91
2019-01-18T12:00:55.935Z,1012.94
2019-01-18T12:01:55.915Z,1012.94
2019-01-18T12:02:55.905Z,1012.94
2019-01-18T12:03:55.890Z,1012.91
2019-01-18T12:04:55.880Z,1012.95
2019-01-18T12:05:55.917Z,1012.94
2019-01-18T12:06:55.869Z,1012.98
2019-01-18T12:07:55.854Z,1012.93